Terminal Aerodrome Forecast
Issued by NWS Springfield, MO

Home | Current Version | Previous Version | Text Only | Print | Product List | Glossary Off
Versions: 1 2 3 4 5 6 7 8 9 10 11 12 13 14 15 16 17 18 19 20 21 22 23 24 25 26 27 28 29 30 31 32 33 34 35

000
FTUS43 KSGF 181300 AAA
TAFSGF
TAF AMD
KSGF 181351Z 1814/1912 04008KT 6SM BR SCT004 BKN020 OVC100
      TEMPO 1814/1817 BKN004
     FM181900 10008KT P6SM SCT030 BKN140
     FM190400 14006KT 4SM BR SCT030 SCT250
     FM190900 15005KT 5SM BR OVC004=

USA.gov is the U.S. government's official web portal to all federal, state and local government web resources and services.